createdAt,value
2024-04-03T00:00:08.804Z,100421.86
2024-04-03T00:02:57.332Z,100424.12
2024-04-03T00:05:25.419Z,100422.75
2024-04-03T00:07:53.649Z,100422.89
2024-04-03T00:10:21.882Z,100423.66
2024-04-03T00:12:50.134Z,100432.13
2024-04-03T00:15:18.311Z,100435.44
2024-04-03T00:17:46.425Z,100434.48
2024-04-03T00:20:14.405Z,100434.61
2024-04-03T00:22:42.331Z,100436.67
2024-04-03T00:25:10.637Z,100437.09
2024-04-03T00:27:39.140Z,100434.08
2024-04-03T00:30:09.088Z,100435.07
2024-04-03T00:32:37.217Z,100435.77
2024-04-03T00:35:06.724Z,100443.19
2024-04-03T00:37:36.838Z,100451.43
2024-04-03T00:40:05.796Z,100452.33
2024-04-03T00:42:33.849Z,100451.13
2024-04-03T00:45:02.076Z,100455.81
2024-04-03T00:47:30.628Z,100458.95
2024-04-03T00:49:59.718Z,100463.14
2024-04-03T00:52:27.792Z,100469.98
2024-04-03T00:54:56.218Z,100473.43
2024-04-03T00:57:24.576Z,100479.09
2024-04-03T00:59:53.261Z,100477.08
2024-04-03T01:02:21.543Z,100480.70
2024-04-03T01:04:49.973Z,100482.77
2024-04-03T01:07:18.274Z,100478.95
2024-04-03T01:09:46.689Z,100477.65
2024-04-03T01:12:14.966Z,100475.20
2024-04-03T01:14:43.210Z,100475.39
2024-04-03T01:17:11.432Z,100478.61
2024-04-03T01:19:39.608Z,100481.91
2024-04-03T01:22:07.552Z,100488.33
2024-04-03T01:24:36.085Z,100486.41
2024-04-03T01:27:04.624Z,100489.27
2024-04-03T01:29:34.659Z,100491.30
2024-04-03T01:32:03.617Z,100494.98
2024-04-03T01:34:32.321Z,100498.50
2024-04-03T01:37:00.335Z,100500.00
2024-04-03T01:39:30.178Z,100504.43
2024-04-03T01:41:58.427Z,100509.25
2024-04-03T01:44:26.837Z,100506.59
2024-04-03T01:46:55.036Z,100508.14
2024-04-03T01:49:23.168Z,100507.70
2024-04-03T01:51:51.397Z,100512.75
2024-04-03T01:54:19.345Z,100511.94
2024-04-03T01:56:47.317Z,100513.16
2024-04-03T01:59:43.653Z,100515.65
2024-04-03T02:02:12.104Z,100517.77
2024-04-03T02:04:40.128Z,100520.36
2024-04-03T02:07:08.331Z,100523.11
2024-04-03T02:09:36.884Z,100522.63
2024-04-03T02:12:06.350Z,100519.73
2024-04-03T02:14:34.549Z,100518.04
2024-04-03T02:17:03.379Z,100525.90
2024-04-03T02:19:31.811Z,100516.05
2024-04-03T02:21:59.822Z,100521.77
2024-04-03T02:24:27.907Z,100515.52
2024-04-03T02:26:56.309Z,100511.52
2024-04-03T02:29:24.829Z,100520.45
2024-04-03T02:31:53.151Z,100524.17
2024-04-03T02:34:21.387Z,100526.00
2024-04-03T02:36:49.864Z,100525.62
2024-04-03T02:39:17.997Z,100523.30
2024-04-03T02:41:45.926Z,100529.64
2024-04-03T02:44:14.175Z,100533.86
2024-04-03T02:46:42.348Z,100541.44
2024-04-03T02:49:11.658Z,100543.35
2024-04-03T02:51:39.682Z,100539.20
2024-04-03T02:54:07.698Z,100544.85
2024-04-03T02:56:35.737Z,100546.60
2024-04-03T02:59:03.642Z,100548.71
2024-04-03T03:01:32.025Z,100547.85
2024-04-03T03:04:01.723Z,100547.34
2024-04-03T03:06:29.688Z,100555.45
2024-04-03T03:08:57.808Z,100555.85
2024-04-03T03:11:25.903Z,100553.20
2024-04-03T03:13:54.250Z,100555.69
2024-04-03T03:16:23.516Z,100556.62
2024-04-03T03:18:51.472Z,100556.05
2024-04-03T03:21:19.740Z,100555.75
2024-04-03T03:23:47.791Z,100560.02
2024-04-03T03:26:16.016Z,100562.36
2024-04-03T03:28:44.300Z,100561.71
2024-04-03T03:31:14.269Z,100561.05
2024-04-03T03:33:42.571Z,100560.33
2024-04-03T03:36:10.647Z,100568.23
2024-04-03T03:38:39.337Z,100565.90
2024-04-03T03:41:07.551Z,100571.52
2024-04-03T03:43:35.790Z,100573.90
2024-04-03T03:46:04.897Z,100575.33
2024-04-03T03:48:51.795Z,100582.27
2024-04-03T03:51:38.569Z,100587.63
2024-04-03T03:54:07.895Z,100587.12
2024-04-03T03:56:42.791Z,100592.83
2024-04-03T03:59:12.768Z,100598.04
2024-04-03T04:01:40.802Z,100602.08
2024-04-03T04:04:09.355Z,100599.75
2024-04-03T04:06:37.592Z,100605.27
2024-04-03T04:09:06.027Z,100608.23
2024-04-03T04:11:34.148Z,100603.66
2024-04-03T04:14:02.390Z,100610.13
2024-04-03T04:16:30.722Z,100607.27
2024-04-03T04:18:58.955Z,100610.02
2024-04-03T04:21:29.197Z,100609.54
2024-04-03T04:23:57.194Z,100607.05
2024-04-03T04:26:25.162Z,100605.14
2024-04-03T04:28:53.095Z,100611.55
2024-04-03T04:31:21.410Z,100608.99
2024-04-03T04:33:49.693Z,100612.41
2024-04-03T04:36:17.953Z,100615.41
2024-04-03T04:38:46.618Z,100616.73
2024-04-03T04:41:14.720Z,100619.00
2024-04-03T04:43:42.675Z,100621.18
2024-04-03T04:46:10.954Z,100622.91
2024-04-03T04:48:38.952Z,100624.48
2024-04-03T04:51:07.304Z,100630.72
2024-04-03T04:53:35.500Z,100635.31
2024-04-03T04:56:05.574Z,100632.41
2024-04-03T04:58:33.763Z,100632.83
2024-04-03T05:01:02.000Z,100636.60
2024-04-03T05:03:30.374Z,100639.92
2024-04-03T05:05:59.065Z,100644.64
2024-04-03T05:08:27.715Z,100639.38
2024-04-03T05:10:58.210Z,100641.27
2024-04-03T05:13:33.840Z,100641.59
2024-04-03T05:16:09.628Z,100638.61
2024-04-03T05:18:38.020Z,100636.86
2024-04-03T05:21:06.458Z,100635.06
2024-04-03T05:23:34.833Z,100633.31
2024-04-03T05:26:06.393Z,100635.14
2024-04-03T05:28:36.401Z,100637.26
2024-04-03T05:31:10.294Z,100633.17
2024-04-03T05:33:39.944Z,100629.57
2024-04-03T05:36:09.677Z,100623.34
2024-04-03T05:38:42.969Z,100624.86
2024-04-03T05:41:13.520Z,100628.03
2024-04-03T05:43:42.180Z,100623.21
2024-04-03T05:46:10.397Z,100618.24
2024-04-03T05:48:38.786Z,100621.39
2024-04-03T05:51:08.859Z,100619.47
2024-04-03T05:53:37.353Z,100619.48
2024-04-03T05:56:06.230Z,100619.91
2024-04-03T05:58:35.288Z,100622.13
2024-04-03T06:01:04.787Z,100625.63
2024-04-03T06:03:33.491Z,100625.02
2024-04-03T06:06:01.954Z,100624.70
2024-04-03T06:08:30.287Z,100625.90
2024-04-03T06:10:58.561Z,100624.80
2024-04-03T06:13:26.669Z,100626.61
2024-04-03T06:15:55.772Z,100623.04
2024-04-03T06:18:24.683Z,100623.07
2024-04-03T06:20:53.115Z,100622.91
2024-04-03T06:23:23.651Z,100632.29
2024-04-03T06:25:52.292Z,100634.27
2024-04-03T06:28:20.244Z,100633.85
2024-04-03T06:30:48.430Z,100636.52
2024-04-03T06:33:17.856Z,100636.80
2024-04-03T06:35:46.094Z,100645.83
2024-04-03T06:38:14.838Z,100641.20
2024-04-03T06:40:44.028Z,100644.49
2024-04-03T06:43:12.086Z,100643.34
2024-04-03T06:45:40.326Z,100647.80
2024-04-03T06:48:08.634Z,100648.00
2024-04-03T06:50:36.631Z,100646.39
2024-04-03T06:53:05.031Z,100645.88
2024-04-03T06:55:32.988Z,100642.77
2024-04-03T06:58:02.694Z,100642.63
2024-04-03T07:00:32.110Z,100640.95
2024-04-03T07:03:00.514Z,100651.04
2024-04-03T07:05:29.065Z,100644.16
2024-04-03T07:07:57.340Z,100640.38
2024-04-03T07:10:25.747Z,100637.84
2024-04-03T07:12:53.856Z,100638.28
2024-04-03T07:15:22.116Z,100640.78
2024-04-03T07:17:50.835Z,100648.77
2024-04-03T07:20:19.199Z,100650.20
2024-04-03T07:22:47.516Z,100651.73
2024-04-03T07:25:16.866Z,100649.48
2024-04-03T07:27:50.342Z,100643.05
2024-04-03T07:30:20.027Z,100641.69
2024-04-03T07:32:48.755Z,100642.89
2024-04-03T07:35:16.901Z,100636.83
2024-04-03T07:37:47.987Z,100631.52
2024-04-03T07:40:16.610Z,100627.92
2024-04-03T07:42:45.812Z,100628.85
2024-04-03T07:45:13.792Z,100627.29
2024-04-03T07:47:42.384Z,100634.23
2024-04-03T07:50:10.504Z,100637.30
2024-04-03T07:52:41.724Z,100636.86
2024-04-03T07:55:11.640Z,100637.04
2024-04-03T07:57:40.476Z,100641.17
2024-04-03T08:00:10.395Z,100644.24
2024-04-03T08:02:43.520Z,100641.65
2024-04-03T08:05:13.540Z,100641.27
2024-04-03T08:07:45.774Z,100644.81
2024-04-03T08:10:14.232Z,100647.88
2024-04-03T08:12:42.769Z,100651.46
2024-04-03T08:15:13.155Z,100646.49
2024-04-03T08:17:41.598Z,100653.27
2024-04-03T08:20:11.896Z,100661.96
2024-04-03T08:22:40.242Z,100653.41
2024-04-03T08:25:08.458Z,100653.33
2024-04-03T08:27:36.750Z,100648.96
2024-04-03T08:30:07.100Z,100650.73
2024-04-03T08:32:35.976Z,100651.66
2024-04-03T08:35:05.197Z,100653.65
2024-04-03T08:37:38.298Z,100654.92
2024-04-03T08:40:16.130Z,100657.94
2024-04-03T08:42:44.291Z,100661.89
2024-04-03T08:45:16.138Z,100656.39
2024-04-03T08:47:46.160Z,100659.71
2024-04-03T08:50:14.180Z,100661.52
2024-04-03T08:52:43.448Z,100661.73
2024-04-03T08:55:15.932Z,100668.42
2024-04-03T08:57:44.977Z,100656.13
2024-04-03T09:00:14.898Z,100656.46
2024-04-03T09:02:43.029Z,100660.44
2024-04-03T09:05:11.908Z,100659.61
2024-04-03T09:07:40.331Z,100656.03
2024-04-03T09:10:09.189Z,100650.11
2024-04-03T09:12:37.256Z,100660.45
2024-04-03T09:15:11.195Z,100665.59
2024-04-03T09:17:39.333Z,100665.73
2024-04-03T09:20:08.443Z,100652.81
2024-04-03T09:22:37.688Z,100662.17
2024-04-03T09:25:06.179Z,100661.38
2024-04-03T09:27:34.098Z,100654.55
2024-04-03T09:30:02.823Z,100653.75
2024-04-03T09:32:30.794Z,100644.66
2024-04-03T09:35:00.122Z,100643.83
2024-04-03T09:37:28.191Z,100650.67
2024-04-03T09:39:56.299Z,100650.48
2024-04-03T09:42:26.053Z,100646.82
2024-04-03T09:44:59.793Z,100633.94
2024-04-03T09:47:30.350Z,100634.31
2024-04-03T09:50:01.914Z,100629.02
2024-04-03T09:52:31.619Z,100633.47
2024-04-03T09:55:00.177Z,100636.39
2024-04-03T09:57:28.692Z,100627.30
2024-04-03T09:59:58.683Z,100629.79
2024-04-03T10:02:26.819Z,100625.80
2024-04-03T10:04:59.110Z,100617.25
2024-04-03T10:07:31.218Z,100606.52
2024-04-03T10:09:59.515Z,100608.71
2024-04-03T10:12:29.569Z,100618.80
2024-04-03T10:14:58.843Z,100623.30
2024-04-03T10:17:38.474Z,100618.23
2024-04-03T10:20:07.934Z,100608.94
2024-04-03T10:22:36.177Z,100609.77
2024-04-03T10:25:07.423Z,100614.43
2024-04-03T10:27:35.524Z,100612.35
2024-04-03T10:30:08.154Z,100610.42
2024-04-03T10:32:36.376Z,100607.98
2024-04-03T10:35:05.945Z,100602.48
2024-04-03T10:37:35.226Z,100608.04
2024-04-03T10:40:04.151Z,100604.59
2024-04-03T10:42:32.178Z,100607.20
2024-04-03T10:45:02.272Z,100606.15
2024-04-03T10:47:30.573Z,100601.36
2024-04-03T10:49:59.070Z,100603.72
2024-04-03T10:52:27.299Z,100589.45
2024-04-03T10:54:56.595Z,100587.96
2024-04-03T10:57:24.613Z,100585.93
2024-04-03T10:59:56.870Z,100591.92
2024-04-03T11:02:24.882Z,100591.55
2024-04-03T11:04:52.870Z,100582.54
2024-04-03T11:07:21.027Z,100578.02
2024-04-03T11:09:49.937Z,100585.77
2024-04-03T11:12:19.949Z,100577.13
2024-04-03T11:14:57.026Z,100582.30
2024-04-03T11:17:24.991Z,100575.02
2024-04-03T11:19:53.598Z,100588.30
2024-04-03T11:22:21.799Z,100584.84
2024-04-03T11:24:50.129Z,100577.98
2024-04-03T11:27:18.181Z,100586.52
2024-04-03T11:29:46.223Z,100572.60
2024-04-03T11:32:17.423Z,100578.95
2024-04-03T11:34:45.471Z,100564.54
2024-04-03T11:37:16.245Z,100572.33
2024-04-03T11:39:44.519Z,100567.70
2024-04-03T11:42:13.326Z,100558.08
2024-04-03T11:44:41.705Z,100561.35
2024-04-03T11:47:10.014Z,100567.29
2024-04-03T11:49:38.275Z,100568.70
2024-04-03T11:52:08.150Z,100577.80
2024-04-03T11:54:36.116Z,100574.64
2024-04-03T11:57:04.351Z,100577.78
2024-04-03T11:59:32.754Z,100572.96
2024-04-03T12:02:01.015Z,100569.28
2024-04-03T12:04:29.401Z,100563.42
2024-04-03T12:06:57.683Z,100567.58
2024-04-03T12:09:26.387Z,100573.60
2024-04-03T12:11:54.957Z,100572.55
2024-04-03T12:14:23.258Z,100565.67
2024-04-03T12:16:56.265Z,100557.91
2024-04-03T12:19:27.896Z,100560.14
2024-04-03T12:21:56.910Z,100569.64
2024-04-03T12:24:25.581Z,100575.27
2024-04-03T12:26:53.677Z,100572.05
2024-04-03T12:29:21.772Z,100572.03
2024-04-03T12:31:52.882Z,100568.56
2024-04-03T12:34:21.548Z,100573.15
2024-04-03T12:37:05.318Z,100577.09
2024-04-03T12:39:39.548Z,100574.02
2024-04-03T12:42:07.587Z,100572.57
2024-04-03T12:44:35.576Z,100577.29
2024-04-03T12:47:08.195Z,100573.08
2024-04-03T12:49:36.675Z,100570.70
2024-04-03T12:52:05.686Z,100575.31
2024-04-03T12:54:33.765Z,100573.77
2024-04-03T12:57:01.953Z,100573.06
2024-04-03T12:59:30.161Z,100572.58
2024-04-03T13:01:58.205Z,100568.95
2024-04-03T13:04:26.303Z,100562.96
2024-04-03T13:06:54.556Z,100570.67
2024-04-03T13:09:22.621Z,100570.52
2024-04-03T13:11:50.874Z,100574.27
2024-04-03T13:14:19.283Z,100571.39
2024-04-03T13:16:47.454Z,100575.67
2024-04-03T13:19:15.635Z,100577.05
2024-04-03T13:21:44.217Z,100585.33
2024-04-03T13:24:12.165Z,100580.41
2024-04-03T13:26:41.469Z,100581.20
2024-04-03T13:29:10.405Z,100573.80
2024-04-03T13:31:38.617Z,100577.39
2024-04-03T13:34:07.345Z,100587.07
2024-04-03T13:36:35.389Z,100574.14
2024-04-03T13:39:08.306Z,100574.55
2024-04-03T13:41:36.315Z,100573.13
2024-04-03T13:44:05.346Z,100576.52
2024-04-03T13:46:34.866Z,100574.66
2024-04-03T13:49:04.429Z,100570.75
2024-04-03T13:51:32.663Z,100593.23
2024-04-03T13:54:02.474Z,100581.95
2024-04-03T13:56:30.737Z,100569.61
2024-04-03T13:58:58.721Z,100569.16
2024-04-03T14:01:26.861Z,100572.89
2024-04-03T14:03:54.897Z,100579.91
2024-04-03T14:06:23.035Z,100572.35
2024-04-03T14:08:53.859Z,100565.15
2024-04-03T14:11:23.528Z,100563.41
2024-04-03T14:13:53.001Z,100550.00
2024-04-03T14:16:20.991Z,100552.83
2024-04-03T14:18:49.361Z,100553.16
2024-04-03T14:21:17.822Z,100550.16
2024-04-03T14:23:46.130Z,100551.54
2024-04-03T14:26:14.293Z,100550.04
2024-04-03T14:28:43.124Z,100557.61
2024-04-03T14:31:11.283Z,100563.56
2024-04-03T14:33:39.378Z,100562.21
2024-04-03T14:36:07.912Z,100560.85
2024-04-03T14:38:36.162Z,100559.10
2024-04-03T14:41:04.923Z,100553.91
2024-04-03T14:43:33.410Z,100552.46
2024-04-03T14:46:02.209Z,100562.20
2024-04-03T14:48:30.987Z,100560.31
2024-04-03T14:50:59.503Z,100559.64
2024-04-03T14:53:28.170Z,100558.71
2024-04-03T14:55:57.018Z,100557.85
2024-04-03T14:58:25.181Z,100560.84
2024-04-03T15:00:53.330Z,100564.96
2024-04-03T15:03:21.540Z,100562.14
2024-04-03T15:05:50.290Z,100564.35
2024-04-03T15:08:21.941Z,100563.78
2024-04-03T15:10:52.961Z,100563.23
2024-04-03T15:13:21.063Z,100567.56
2024-04-03T15:15:49.590Z,100573.14
2024-04-03T15:18:17.915Z,100581.45
2024-04-03T15:20:46.922Z,100583.67
2024-04-03T15:23:15.222Z,100584.14
2024-04-03T15:25:44.087Z,100582.80
2024-04-03T15:28:12.184Z,100586.90
2024-04-03T15:30:40.760Z,100582.69
2024-04-03T15:33:08.854Z,100585.92
2024-04-03T15:35:38.574Z,100591.07
2024-04-03T15:38:06.546Z,100596.20
2024-04-03T15:40:35.674Z,100598.82
2024-04-03T15:43:04.517Z,100600.69
2024-04-03T15:45:32.565Z,100602.10
2024-04-03T15:48:02.265Z,100602.73
2024-04-03T15:50:30.571Z,100612.05
2024-04-03T15:53:04.238Z,100608.29
2024-04-03T15:55:32.710Z,100610.30
2024-04-03T15:58:00.687Z,100616.17
2024-04-03T16:00:29.931Z,100620.68
2024-04-03T16:02:58.186Z,100622.27
2024-04-03T16:05:26.232Z,100626.66
2024-04-03T16:07:54.489Z,100626.61
2024-04-03T16:10:22.734Z,100628.58
2024-04-03T16:12:51.012Z,100635.27
2024-04-03T16:15:19.906Z,100639.85
2024-04-03T16:17:48.983Z,100643.11
2024-04-03T16:20:18.506Z,100651.95
2024-04-03T16:22:46.885Z,100653.77
2024-04-03T16:25:15.098Z,100657.21
2024-04-03T16:27:45.484Z,100661.14
2024-04-03T16:30:13.893Z,100662.92
2024-04-03T16:32:41.919Z,100661.63
2024-04-03T16:35:12.598Z,100661.48
2024-04-03T16:37:40.830Z,100661.22
2024-04-03T16:40:09.755Z,100666.73
2024-04-03T16:42:38.938Z,100670.46
2024-04-03T16:45:07.953Z,100674.64
2024-04-03T16:47:35.968Z,100678.72
2024-04-03T16:50:04.537Z,100680.63
2024-04-03T16:52:32.616Z,100685.94
2024-04-03T16:55:00.999Z,100690.95
2024-04-03T16:57:29.106Z,100696.83
2024-04-03T16:59:57.321Z,100698.28
2024-04-03T17:02:25.376Z,100706.79
2024-04-03T17:04:53.523Z,100708.98
2024-04-03T17:07:24.462Z,100713.52
2024-04-03T17:09:52.546Z,100716.73
2024-04-03T17:12:20.782Z,100717.58
2024-04-03T17:14:49.200Z,100724.19
2024-04-03T17:17:17.819Z,100728.48
2024-04-03T17:19:46.167Z,100733.85
2024-04-03T17:22:14.684Z,100735.13
2024-04-03T17:24:43.094Z,100740.52
2024-04-03T17:27:11.596Z,100750.59
2024-04-03T17:29:42.654Z,100752.81
2024-04-03T17:32:10.965Z,100756.05
2024-04-03T17:34:40.603Z,100763.26
2024-04-03T17:37:08.928Z,100763.73
2024-04-03T17:39:37.594Z,100766.92
2024-04-03T17:42:06.250Z,100772.42
2024-04-03T17:44:34.236Z,100771.57
2024-04-03T17:47:10.836Z,100774.71
2024-04-03T17:49:40.040Z,100780.60
2024-04-03T17:52:08.833Z,100785.15
2024-04-03T17:54:36.920Z,100790.67
2024-04-03T17:57:06.205Z,100789.95
2024-04-03T17:59:34.244Z,100793.96
2024-04-03T18:02:02.202Z,100799.42
2024-04-03T18:04:30.293Z,100807.01
2024-04-03T18:06:58.530Z,100817.02
2024-04-03T18:09:27.074Z,100826.52
2024-04-03T18:11:55.547Z,100827.04
2024-04-03T18:14:23.501Z,100829.85
2024-04-03T18:16:52.120Z,100832.63
2024-04-03T18:19:20.959Z,100832.72
2024-04-03T18:21:49.158Z,100836.13
2024-04-03T18:24:17.686Z,100835.84
2024-04-03T18:26:46.689Z,100838.90
2024-04-03T18:29:14.774Z,100836.90
2024-04-03T18:31:42.827Z,100836.38
2024-04-03T18:34:11.013Z,100833.91
2024-04-03T18:36:39.305Z,100837.69
2024-04-03T18:39:08.601Z,100839.67
2024-04-03T18:41:36.822Z,100843.00
2024-04-03T18:44:05.355Z,100843.82
2024-04-03T18:46:33.297Z,100846.06
2024-04-03T18:49:02.349Z,100845.37
2024-04-03T18:51:30.520Z,100845.19
2024-04-03T18:53:58.753Z,100841.71
2024-04-03T18:56:27.133Z,100841.63
2024-04-03T18:58:55.059Z,100846.33
2024-04-03T19:01:23.370Z,100849.77
2024-04-03T19:03:51.309Z,100849.88
2024-04-03T19:06:19.508Z,100847.55
2024-04-03T19:08:47.644Z,100848.67
2024-04-03T19:11:16.374Z,100847.55
2024-04-03T19:13:44.545Z,100851.27
2024-04-03T19:16:13.668Z,100850.08
2024-04-03T19:18:45.771Z,100854.08
2024-04-03T19:21:15.521Z,100856.52
2024-04-03T19:23:44.033Z,100854.96
2024-04-03T19:26:11.967Z,100855.71
2024-04-03T19:28:42.003Z,100855.27
2024-04-03T19:31:10.924Z,100856.63
2024-04-03T19:33:39.033Z,100857.04
2024-04-03T19:36:07.995Z,100857.99
2024-04-03T19:38:39.916Z,100859.43
2024-04-03T19:41:08.048Z,100861.73
2024-04-03T19:43:36.044Z,100863.54
2024-04-03T19:46:04.610Z,100864.44
2024-04-03T19:48:32.703Z,100864.63
2024-04-03T19:51:01.012Z,100865.41
2024-04-03T19:53:36.021Z,100867.98
2024-04-03T19:56:04.649Z,100864.70
2024-04-03T19:58:32.722Z,100861.14
2024-04-03T20:01:05.763Z,100860.88
2024-04-03T20:03:33.824Z,100861.94
2024-04-03T20:06:02.478Z,100867.52
2024-04-03T20:08:30.780Z,100871.23
2024-04-03T20:10:59.031Z,100870.41
2024-04-03T20:13:28.492Z,100872.61
2024-04-03T20:15:56.727Z,100874.14
2024-04-03T20:18:25.061Z,100873.04
2024-04-03T20:20:53.018Z,100870.86
2024-04-03T20:23:21.018Z,100866.45
2024-04-03T20:25:49.244Z,100867.36
2024-04-03T20:28:17.985Z,100879.56
2024-04-03T20:30:46.431Z,100882.05
2024-04-03T20:33:14.579Z,100886.14
2024-04-03T20:35:47.431Z,100888.66
2024-04-03T20:38:15.904Z,100891.98
2024-04-03T20:40:44.793Z,100892.55
2024-04-03T20:43:12.766Z,100892.88
2024-04-03T20:45:41.649Z,100897.37
2024-04-03T20:48:10.304Z,100901.85
2024-04-03T20:50:40.246Z,100898.23
2024-04-03T20:53:08.480Z,100896.35
2024-04-03T20:55:36.504Z,100893.15
2024-04-03T20:58:05.164Z,100889.42
2024-04-03T21:00:33.374Z,100892.88
2024-04-03T21:03:01.531Z,100890.33
2024-04-03T21:05:30.629Z,100892.98
2024-04-03T21:07:59.001Z,100895.52
2024-04-03T21:10:27.111Z,100896.75
2024-04-03T21:12:55.271Z,100901.45
2024-04-03T21:15:23.508Z,100904.00
2024-04-03T21:17:51.583Z,100905.18
2024-04-03T21:20:19.667Z,100903.14
2024-04-03T21:22:47.591Z,100896.71
2024-04-03T21:25:15.564Z,100895.20
2024-04-03T21:27:43.918Z,100894.34
2024-04-03T21:30:15.180Z,100890.63
2024-04-03T21:32:43.485Z,100888.85
2024-04-03T21:35:12.042Z,100891.05
2024-04-03T21:37:40.035Z,100895.18
2024-04-03T21:40:09.075Z,100896.70
2024-04-03T21:42:37.230Z,100901.83
2024-04-03T21:45:05.925Z,100904.59
2024-04-03T21:47:34.603Z,100905.67
2024-04-03T21:50:02.906Z,100908.70
2024-04-03T21:52:32.067Z,100912.50
2024-04-03T21:55:00.446Z,100911.96
2024-04-03T21:57:28.733Z,100907.45
2024-04-03T21:59:56.937Z,100910.42
2024-04-03T22:02:25.576Z,100907.76
2024-04-03T22:04:53.710Z,100908.66
2024-04-03T22:07:21.909Z,100914.19
2024-04-03T22:09:50.133Z,100914.27
2024-04-03T22:12:18.369Z,100916.73
2024-04-03T22:14:46.442Z,100913.65
2024-04-03T22:17:14.582Z,100915.77
2024-04-03T22:19:42.808Z,100915.20
2024-04-03T22:22:11.270Z,100913.98
2024-04-03T22:24:39.221Z,100911.89
2024-04-03T22:27:07.142Z,100911.48
2024-04-03T22:29:35.130Z,100921.02
2024-04-03T22:32:03.277Z,100921.86
2024-04-03T22:34:31.358Z,100929.17
2024-04-03T22:36:59.294Z,100926.83
2024-04-03T22:39:27.508Z,100925.36
2024-04-03T22:41:55.455Z,100929.13
2024-04-03T22:44:24.078Z,100931.25
2024-04-03T22:46:52.222Z,100934.35
2024-04-03T22:49:22.070Z,100928.54
2024-04-03T22:51:50.329Z,100928.83
2024-04-03T22:54:18.810Z,100930.45
2024-04-03T22:56:47.038Z,100926.63
2024-04-03T22:59:15.279Z,100932.21
2024-04-03T23:01:43.243Z,100932.39
2024-04-03T23:04:11.186Z,100923.54
2024-04-03T23:06:39.130Z,100919.73
2024-04-03T23:09:07.280Z,100926.16
2024-04-03T23:11:35.791Z,100926.23
2024-04-03T23:14:03.950Z,100926.30
2024-04-03T23:16:32.272Z,100931.02
2024-04-03T23:19:00.530Z,100928.86
2024-04-03T23:21:28.899Z,100924.89
2024-04-03T23:23:57.071Z,100923.41
2024-04-03T23:26:25.416Z,100926.27
2024-04-03T23:28:54.948Z,100929.38
2024-04-03T23:31:23.370Z,100930.55
2024-04-03T23:33:51.786Z,100933.45
2024-04-03T23:36:19.947Z,100938.88
2024-04-03T23:38:48.117Z,100935.54
2024-04-03T23:41:16.285Z,100935.55
2024-04-03T23:43:44.763Z,100937.52
2024-04-03T23:46:12.717Z,100935.09
2024-04-03T23:48:40.911Z,100937.65
2024-04-03T23:51:09.017Z,100938.73
2024-04-03T23:53:37.484Z,100935.70
2024-04-03T23:56:08.284Z,100934.48
2024-04-03T23:58:36.671Z,100938.52
